sensor_id;sensor_type;location;lat;lon;timestamp;P1;durP1;ratioP1;P2;durP2;ratioP2
56999;SDS011;42891;50.006;21.964;2023-02-14T00:03:41;25.65;;;15.15;;
56999;SDS011;42891;50.006;21.964;2023-02-14T00:07:41;27.83;;;15.48;;
56999;SDS011;42891;50.006;21.964;2023-02-14T00:11:42;28.90;;;16.63;;
56999;SDS011;42891;50.006;21.964;2023-02-14T00:15:43;27.73;;;15.18;;
56999;SDS011;42891;50.006;21.964;2023-02-14T00:19:43;24.48;;;15.23;;
56999;SDS011;42891;50.006;21.964;2023-02-14T00:23:44;25.35;;;16.13;;
56999;SDS011;42891;50.006;21.964;2023-02-14T00:27:44;30.07;;;16.07;;
56999;SDS011;42891;50.006;21.964;2023-02-14T00:31:44;25.52;;;15.02;;
56999;SDS011;42891;50.006;21.964;2023-02-14T00:35:45;26.92;;;15.82;;
56999;SDS011;42891;50.006;21.964;2023-02-14T00:39:45;26.87;;;15.70;;
56999;SDS011;42891;50.006;21.964;2023-02-14T00:43:46;26.48;;;15.32;;
56999;SDS011;42891;50.006;21.964;2023-02-14T00:47:50;24.60;;;14.70;;
56999;SDS011;42891;50.006;21.964;2023-02-14T00:51:51;28.57;;;15.67;;
56999;SDS011;42891;50.006;21.964;2023-02-14T00:55:51;25.85;;;15.27;;
56999;SDS011;42891;50.006;21.964;2023-02-14T00:59:51;23.90;;;14.27;;
56999;SDS011;42891;50.006;21.964;2023-02-14T01:03:52;27.40;;;15.00;;
56999;SDS011;42891;50.006;21.964;2023-02-14T01:07:52;22.58;;;14.05;;
56999;SDS011;42891;50.006;21.964;2023-02-14T01:11:52;22.35;;;13.77;;
56999;SDS011;42891;50.006;21.964;2023-02-14T01:15:53;20.35;;;13.20;;
56999;SDS011;42891;50.006;21.964;2023-02-14T01:19:53;24.27;;;13.70;;
56999;SDS011;42891;50.006;21.964;2023-02-14T01:23:55;22.50;;;13.57;;
56999;SDS011;42891;50.006;21.964;2023-02-14T01:27:56;22.35;;;13.70;;
56999;SDS011;42891;50.006;21.964;2023-02-14T01:31:57;21.23;;;13.73;;
56999;SDS011;42891;50.006;21.964;2023-02-14T01:35:57;21.97;;;12.43;;
56999;SDS011;42891;50.006;21.964;2023-02-14T01:39:58;22.27;;;12.73;;
56999;SDS011;42891;50.006;21.964;2023-02-14T01:48:14;20.88;;;13.60;;
56999;SDS011;42891;50.006;21.964;2023-02-14T01:52:20;21.55;;;13.77;;
56999;SDS011;42891;50.006;21.964;2023-02-14T01:56:35;22.90;;;13.05;;
56999;SDS011;42891;50.006;21.964;2023-02-14T02:00:39;22.38;;;12.95;;
56999;SDS011;42891;50.006;21.964;2023-02-14T02:04:56;21.35;;;13.27;;
56999;SDS011;42891;50.006;21.964;2023-02-14T02:09:02;23.20;;;14.05;;
56999;SDS011;42891;50.006;21.964;2023-02-14T02:13:08;21.95;;;14.55;;
56999;SDS011;42891;50.006;21.964;2023-02-14T02:21:42;20.70;;;11.93;;
56999;SDS011;42891;50.006;21.964;2023-02-14T02:39:15;21.25;;;11.32;;
56999;SDS011;42891;50.006;21.964;2023-02-14T02:47:43;17.92;;;11.35;;
56999;SDS011;42891;50.006;21.964;2023-02-14T02:51:52;17.87;;;11.70;;
56999;SDS011;42891;50.006;21.964;2023-02-14T02:56:17;16.10;;;10.52;;
56999;SDS011;42891;50.006;21.964;2023-02-14T03:00:43;21.88;;;11.45;;
56999;SDS011;42891;50.006;21.964;2023-02-14T03:04:47;19.27;;;10.77;;
56999;SDS011;42891;50.006;21.964;2023-02-14T03:08:54;19.70;;;11.30;;
56999;SDS011;42891;50.006;21.964;2023-02-14T03:17:16;20.05;;;11.45;;
56999;SDS011;42891;50.006;21.964;2023-02-14T03:21:33;17.23;;;10.90;;
56999;SDS011;42891;50.006;21.964;2023-02-14T03:25:46;22.48;;;11.80;;
56999;SDS011;42891;50.006;21.964;2023-02-14T03:30:03;21.73;;;11.60;;
56999;SDS011;42891;50.006;21.964;2023-02-14T03:38:26;19.92;;;10.90;;
56999;SDS011;42891;50.006;21.964;2023-02-14T03:42:34;18.20;;;11.00;;
56999;SDS011;42891;50.006;21.964;2023-02-14T03:51:18;15.25;;;10.60;;
56999;SDS011;42891;50.006;21.964;2023-02-14T03:55:23;16.75;;;11.57;;
56999;SDS011;42891;50.006;21.964;2023-02-14T03:59:29;17.65;;;10.43;;
56999;SDS011;42891;50.006;21.964;2023-02-14T04:03:30;18.88;;;11.93;;
56999;SDS011;42891;50.006;21.964;2023-02-14T04:07:31;18.23;;;11.88;;
56999;SDS011;42891;50.006;21.964;2023-02-14T04:11:44;16.75;;;10.93;;
56999;SDS011;42891;50.006;21.964;2023-02-14T04:15:46;19.05;;;11.63;;
56999;SDS011;42891;50.006;21.964;2023-02-14T04:19:46;19.77;;;11.18;;
56999;SDS011;42891;50.006;21.964;2023-02-14T04:23:46;18.83;;;11.55;;
56999;SDS011;42891;50.006;21.964;2023-02-14T04:27:46;21.77;;;13.03;;
56999;SDS011;42891;50.006;21.964;2023-02-14T04:31:47;19.73;;;12.05;;
56999;SDS011;42891;50.006;21.964;2023-02-14T04:35:47;18.30;;;12.02;;
56999;SDS011;42891;50.006;21.964;2023-02-14T04:39:48;20.38;;;11.80;;
56999;SDS011;42891;50.006;21.964;2023-02-14T04:43:48;19.35;;;12.75;;
56999;SDS011;42891;50.006;21.964;2023-02-14T04:47:48;23.87;;;12.27;;
56999;SDS011;42891;50.006;21.964;2023-02-14T04:51:49;20.40;;;12.65;;
56999;SDS011;42891;50.006;21.964;2023-02-14T04:55:49;19.05;;;12.60;;
56999;SDS011;42891;50.006;21.964;2023-02-14T04:59:50;21.42;;;13.23;;
56999;SDS011;42891;50.006;21.964;2023-02-14T05:03:50;21.42;;;13.10;;
56999;SDS011;42891;50.006;21.964;2023-02-14T05:07:50;25.67;;;13.77;;
56999;SDS011;42891;50.006;21.964;2023-02-14T05:11:51;23.67;;;13.90;;
56999;SDS011;42891;50.006;21.964;2023-02-14T05:15:51;24.13;;;13.90;;
56999;SDS011;42891;50.006;21.964;2023-02-14T05:19:51;24.60;;;13.55;;
56999;SDS011;42891;50.006;21.964;2023-02-14T05:23:51;24.17;;;15.17;;
56999;SDS011;42891;50.006;21.964;2023-02-14T05:27:52;25.83;;;14.00;;
56999;SDS011;42891;50.006;21.964;2023-02-14T05:31:52;24.48;;;14.75;;
56999;SDS011;42891;50.006;21.964;2023-02-14T05:35:53;24.52;;;13.35;;
56999;SDS011;42891;50.006;21.964;2023-02-14T05:39:53;23.50;;;14.20;;
56999;SDS011;42891;50.006;21.964;2023-02-14T05:43:53;23.23;;;14.63;;
56999;SDS011;42891;50.006;21.964;2023-02-14T05:47:53;23.47;;;13.40;;
56999;SDS011;42891;50.006;21.964;2023-02-14T05:51:54;20.88;;;13.50;;
56999;SDS011;42891;50.006;21.964;2023-02-14T05:55:54;26.95;;;14.60;;
56999;SDS011;42891;50.006;21.964;2023-02-14T05:59:54;21.67;;;13.93;;
56999;SDS011;42891;50.006;21.964;2023-02-14T06:03:55;21.02;;;13.32;;
56999;SDS011;42891;50.006;21.964;2023-02-14T06:07:55;22.30;;;14.27;;
56999;SDS011;42891;50.006;21.964;2023-02-14T06:11:55;25.27;;;14.73;;
56999;SDS011;42891;50.006;21.964;2023-02-14T06:15:56;23.92;;;13.57;;
56999;SDS011;42891;50.006;21.964;2023-02-14T06:19:56;26.17;;;15.15;;
56999;SDS011;42891;50.006;21.964;2023-02-14T06:23:56;23.08;;;14.82;;
56999;SDS011;42891;50.006;21.964;2023-02-14T06:27:57;24.15;;;13.82;;
56999;SDS011;42891;50.006;21.964;2023-02-14T06:31:57;21.27;;;14.00;;
56999;SDS011;42891;50.006;21.964;2023-02-14T06:36:04;23.73;;;13.98;;
56999;SDS011;42891;50.006;21.964;2023-02-14T06:40:05;20.65;;;13.50;;
56999;SDS011;42891;50.006;21.964;2023-02-14T06:44:06;25.40;;;15.32;;
56999;SDS011;42891;50.006;21.964;2023-02-14T06:48:06;25.08;;;14.02;;
56999;SDS011;42891;50.006;21.964;2023-02-14T06:52:06;23.80;;;14.87;;
56999;SDS011;42891;50.006;21.964;2023-02-14T06:56:08;23.38;;;13.50;;
56999;SDS011;42891;50.006;21.964;2023-02-14T07:00:08;25.60;;;15.43;;
56999;SDS011;42891;50.006;21.964;2023-02-14T07:04:09;26.90;;;16.17;;
56999;SDS011;42891;50.006;21.964;2023-02-14T07:08:09;24.70;;;15.90;;
56999;SDS011;42891;50.006;21.964;2023-02-14T07:12:09;25.63;;;14.88;;
56999;SDS011;42891;50.006;21.964;2023-02-14T07:16:10;27.02;;;16.70;;
56999;SDS011;42891;50.006;21.964;2023-02-14T07:20:10;31.17;;;16.73;;
56999;SDS011;42891;50.006;21.964;2023-02-14T07:24:12;28.33;;;16.63;;
56999;SDS011;42891;50.006;21.964;2023-02-14T07:28:12;26.75;;;17.00;;
56999;SDS011;42891;50.006;21.964;2023-02-14T07:32:12;29.43;;;16.60;;
56999;SDS011;42891;50.006;21.964;2023-02-14T07:36:12;26.30;;;16.17;;
56999;SDS011;42891;50.006;21.964;2023-02-14T07:40:13;30.83;;;16.93;;
56999;SDS011;42891;50.006;21.964;2023-02-14T07:44:13;24.93;;;16.03;;
56999;SDS011;42891;50.006;21.964;2023-02-14T07:48:13;30.95;;;16.95;;
56999;SDS011;42891;50.006;21.964;2023-02-14T07:52:13;29.20;;;17.38;;
56999;SDS011;42891;50.006;21.964;2023-02-14T07:56:14;28.17;;;18.17;;
56999;SDS011;42891;50.006;21.964;2023-02-14T08:00:14;28.60;;;17.38;;
56999;SDS011;42891;50.006;21.964;2023-02-14T08:04:15;30.40;;;18.02;;
56999;SDS011;42891;50.006;21.964;2023-02-14T08:08:15;26.30;;;17.40;;
56999;SDS011;42891;50.006;21.964;2023-02-14T08:12:15;28.05;;;17.65;;
56999;SDS011;42891;50.006;21.964;2023-02-14T08:16:34;29.05;;;16.67;;
56999;SDS011;42891;50.006;21.964;2023-02-14T08:20:34;27.45;;;16.75;;
56999;SDS011;42891;50.006;21.964;2023-02-14T08:24:35;28.17;;;18.88;;
56999;SDS011;42891;50.006;21.964;2023-02-14T08:28:35;28.70;;;17.70;;
56999;SDS011;42891;50.006;21.964;2023-02-14T08:32:35;31.92;;;18.48;;
56999;SDS011;42891;50.006;21.964;2023-02-14T08:36:36;33.40;;;19.17;;
56999;SDS011;42891;50.006;21.964;2023-02-14T08:40:36;30.27;;;18.00;;
56999;SDS011;42891;50.006;21.964;2023-02-14T08:44:37;33.03;;;18.15;;
56999;SDS011;42891;50.006;21.964;2023-02-14T08:48:37;28.23;;;16.77;;
56999;SDS011;42891;50.006;21.964;2023-02-14T08:52:38;30.08;;;17.83;;
56999;SDS011;42891;50.006;21.964;2023-02-14T08:56:40;35.80;;;18.63;;
56999;SDS011;42891;50.006;21.964;2023-02-14T09:00:40;29.92;;;18.48;;
56999;SDS011;42891;50.006;21.964;2023-02-14T09:04:41;28.77;;;18.27;;
56999;SDS011;42891;50.006;21.964;2023-02-14T09:08:41;27.70;;;18.67;;
56999;SDS011;42891;50.006;21.964;2023-02-14T09:12:43;31.08;;;17.63;;
56999;SDS011;42891;50.006;21.964;2023-02-14T09:16:44;33.38;;;17.48;;
56999;SDS011;42891;50.006;21.964;2023-02-14T09:20:44;28.13;;;18.50;;
56999;SDS011;42891;50.006;21.964;2023-02-14T09:24:44;32.57;;;20.90;;
56999;SDS011;42891;50.006;21.964;2023-02-14T09:28:44;31.87;;;18.87;;
56999;SDS011;42891;50.006;21.964;2023-02-14T09:32:45;31.70;;;18.15;;
56999;SDS011;42891;50.006;21.964;2023-02-14T09:36:45;26.57;;;17.37;;
56999;SDS011;42891;50.006;21.964;2023-02-14T09:40:45;29.67;;;18.25;;
56999;SDS011;42891;50.006;21.964;2023-02-14T09:44:48;30.58;;;18.35;;
56999;SDS011;42891;50.006;21.964;2023-02-14T09:48:54;28.73;;;18.13;;
56999;SDS011;42891;50.006;21.964;2023-02-14T09:52:59;28.92;;;17.98;;
56999;SDS011;42891;50.006;21.964;2023-02-14T09:57:16;33.75;;;18.88;;
56999;SDS011;42891;50.006;21.964;2023-02-14T10:01:38;34.95;;;19.30;;
56999;SDS011;42891;50.006;21.964;2023-02-14T10:06:01;26.25;;;17.23;;
56999;SDS011;42891;50.006;21.964;2023-02-14T10:14:24;29.73;;;18.15;;
56999;SDS011;42891;50.006;21.964;2023-02-14T10:19:12;26.02;;;16.48;;
56999;SDS011;42891;50.006;21.964;2023-02-14T10:23:03;31.25;;;17.73;;
56999;SDS011;42891;50.006;21.964;2023-02-14T10:27:17;29.60;;;18.00;;
56999;SDS011;42891;50.006;21.964;2023-02-14T10:35:50;28.75;;;17.73;;
56999;SDS011;42891;50.006;21.964;2023-02-14T10:44:34;24.52;;;16.85;;
56999;SDS011;42891;50.006;21.964;2023-02-14T10:49:07;30.20;;;16.88;;
56999;SDS011;42891;50.006;21.964;2023-02-14T10:53:35;26.27;;;15.82;;
56999;SDS011;42891;50.006;21.964;2023-02-14T10:57:40;24.45;;;16.00;;
56999;SDS011;42891;50.006;21.964;2023-02-14T11:01:44;25.13;;;16.30;;
56999;SDS011;42891;50.006;21.964;2023-02-14T11:05:46;37.15;;;20.45;;
56999;SDS011;42891;50.006;21.964;2023-02-14T11:09:47;30.42;;;17.00;;
56999;SDS011;42891;50.006;21.964;2023-02-14T11:13:48;30.83;;;16.83;;
56999;SDS011;42891;50.006;21.964;2023-02-14T11:17:49;26.48;;;15.32;;
56999;SDS011;42891;50.006;21.964;2023-02-14T11:21:49;25.23;;;14.95;;
56999;SDS011;42891;50.006;21.964;2023-02-14T11:25:51;30.10;;;15.90;;
56999;SDS011;42891;50.006;21.964;2023-02-14T11:29:54;23.13;;;15.07;;
56999;SDS011;42891;50.006;21.964;2023-02-14T11:33:54;22.50;;;14.23;;
56999;SDS011;42891;50.006;21.964;2023-02-14T11:37:56;25.15;;;15.77;;
56999;SDS011;42891;50.006;21.964;2023-02-14T11:41:58;22.25;;;14.63;;
56999;SDS011;42891;50.006;21.964;2023-02-14T11:50:20;22.65;;;14.82;;
56999;SDS011;42891;50.006;21.964;2023-02-14T11:58:36;27.98;;;16.25;;
56999;SDS011;42891;50.006;21.964;2023-02-14T12:02:40;23.83;;;16.00;;
56999;SDS011;42891;50.006;21.964;2023-02-14T12:06:43;25.30;;;14.68;;
56999;SDS011;42891;50.006;21.964;2023-02-14T12:10:44;23.48;;;14.25;;
56999;SDS011;42891;50.006;21.964;2023-02-14T12:19:27;23.92;;;15.10;;
56999;SDS011;42891;50.006;21.964;2023-02-14T12:23:39;19.55;;;13.45;;
56999;SDS011;42891;50.006;21.964;2023-02-14T12:27:46;26.73;;;14.65;;
56999;SDS011;42891;50.006;21.964;2023-02-14T12:31:50;23.80;;;14.05;;
56999;SDS011;42891;50.006;21.964;2023-02-14T12:44:16;23.40;;;15.38;;
56999;SDS011;42891;50.006;21.964;2023-02-14T12:48:32;23.73;;;14.40;;
56999;SDS011;42891;50.006;21.964;2023-02-14T12:56:50;23.25;;;13.68;;
56999;SDS011;42891;50.006;21.964;2023-02-14T13:01:20;19.80;;;13.35;;
56999;SDS011;42891;50.006;21.964;2023-02-14T13:06:21;22.30;;;13.75;;
56999;SDS011;42891;50.006;21.964;2023-02-14T13:15:10;23.50;;;14.65;;
56999;SDS011;42891;50.006;21.964;2023-02-14T13:19:23;24.65;;;15.77;;
56999;SDS011;42891;50.006;21.964;2023-02-14T13:23:40;23.45;;;14.00;;
56999;SDS011;42891;50.006;21.964;2023-02-14T13:27:42;20.58;;;13.95;;
56999;SDS011;42891;50.006;21.964;2023-02-14T13:31:43;20.73;;;14.70;;
56999;SDS011;42891;50.006;21.964;2023-02-14T13:35:44;21.40;;;14.20;;
56999;SDS011;42891;50.006;21.964;2023-02-14T13:39:55;22.63;;;13.73;;
56999;SDS011;42891;50.006;21.964;2023-02-14T13:44:03;29.42;;;15.75;;
56999;SDS011;42891;50.006;21.964;2023-02-14T13:52:08;29.95;;;17.40;;
56999;SDS011;42891;50.006;21.964;2023-02-14T14:16:32;31.17;;;18.92;;
56999;SDS011;42891;50.006;21.964;2023-02-14T14:20:37;31.53;;;19.43;;
56999;SDS011;42891;50.006;21.964;2023-02-14T14:24:49;31.88;;;18.65;;
56999;SDS011;42891;50.006;21.964;2023-02-14T14:28:52;30.33;;;17.10;;
56999;SDS011;42891;50.006;21.964;2023-02-14T14:32:53;26.80;;;17.85;;
56999;SDS011;42891;50.006;21.964;2023-02-14T14:37:03;38.08;;;20.15;;
56999;SDS011;42891;50.006;21.964;2023-02-14T14:41:06;33.33;;;19.80;;
56999;SDS011;42891;50.006;21.964;2023-02-14T14:45:08;36.55;;;20.55;;
56999;SDS011;42891;50.006;21.964;2023-02-14T14:49:20;35.55;;;20.17;;
56999;SDS011;42891;50.006;21.964;2023-02-14T14:53:23;34.22;;;21.38;;
56999;SDS011;42891;50.006;21.964;2023-02-14T14:57:27;35.95;;;20.92;;
56999;SDS011;42891;50.006;21.964;2023-02-14T15:01:37;31.95;;;19.52;;
56999;SDS011;42891;50.006;21.964;2023-02-14T15:09:49;38.47;;;21.52;;
56999;SDS011;42891;50.006;21.964;2023-02-14T15:13:50;36.80;;;22.05;;
56999;SDS011;42891;50.006;21.964;2023-02-14T15:17:52;38.78;;;22.08;;
56999;SDS011;42891;50.006;21.964;2023-02-14T15:21:53;33.35;;;21.35;;
56999;SDS011;42891;50.006;21.964;2023-02-14T15:25:54;52.50;;;27.75;;
56999;SDS011;42891;50.006;21.964;2023-02-14T15:29:59;66.53;;;33.35;;
56999;SDS011;42891;50.006;21.964;2023-02-14T15:34:01;66.47;;;34.13;;
56999;SDS011;42891;50.006;21.964;2023-02-14T15:38:03;48.47;;;26.95;;
56999;SDS011;42891;50.006;21.964;2023-02-14T15:42:16;48.45;;;25.80;;
56999;SDS011;42891;50.006;21.964;2023-02-14T15:50:31;45.75;;;25.65;;
56999;SDS011;42891;50.006;21.964;2023-02-14T15:54:37;44.58;;;26.65;;
56999;SDS011;42891;50.006;21.964;2023-02-14T15:58:40;44.25;;;26.95;;
56999;SDS011;42891;50.006;21.964;2023-02-14T16:02:44;47.60;;;27.42;;
56999;SDS011;42891;50.006;21.964;2023-02-14T16:06:47;50.25;;;28.30;;
56999;SDS011;42891;50.006;21.964;2023-02-14T16:11:32;45.78;;;25.67;;
56999;SDS011;42891;50.006;21.964;2023-02-14T16:15:37;51.78;;;27.48;;
56999;SDS011;42891;50.006;21.964;2023-02-14T16:19:42;49.67;;;28.27;;
56999;SDS011;42891;50.006;21.964;2023-02-14T16:24:29;62.53;;;35.65;;
56999;SDS011;42891;50.006;21.964;2023-02-14T16:28:10;54.67;;;34.00;;
56999;SDS011;42891;50.006;21.964;2023-02-14T16:32:21;62.30;;;35.05;;
56999;SDS011;42891;50.006;21.964;2023-02-14T16:36:26;76.00;;;42.97;;
56999;SDS011;42891;50.006;21.964;2023-02-14T16:40:29;53.40;;;33.95;;
56999;SDS011;42891;50.006;21.964;2023-02-14T16:44:29;54.92;;;30.17;;
56999;SDS011;42891;50.006;21.964;2023-02-14T16:48:29;56.78;;;37.22;;
56999;SDS011;42891;50.006;21.964;2023-02-14T16:52:30;68.28;;;40.78;;
56999;SDS011;42891;50.006;21.964;2023-02-14T17:00:47;79.57;;;49.47;;
56999;SDS011;42891;50.006;21.964;2023-02-14T17:04:47;47.17;;;27.40;;
56999;SDS011;42891;50.006;21.964;2023-02-14T17:08:48;45.78;;;26.73;;
56999;SDS011;42891;50.006;21.964;2023-02-14T17:12:51;49.88;;;31.23;;
56999;SDS011;42891;50.006;21.964;2023-02-14T17:16:51;77.18;;;44.78;;
56999;SDS011;42891;50.006;21.964;2023-02-14T17:20:54;178.02;;;87.53;;
56999;SDS011;42891;50.006;21.964;2023-02-14T17:24:54;71.45;;;44.75;;
56999;SDS011;42891;50.006;21.964;2023-02-14T17:28:54;49.00;;;28.55;;
56999;SDS011;42891;50.006;21.964;2023-02-14T17:32:55;59.97;;;38.90;;
56999;SDS011;42891;50.006;21.964;2023-02-14T17:36:55;65.38;;;39.75;;
56999;SDS011;42891;50.006;21.964;2023-02-14T17:40:55;55.00;;;32.60;;
56999;SDS011;42891;50.006;21.964;2023-02-14T17:44:56;59.13;;;32.08;;
56999;SDS011;42891;50.006;21.964;2023-02-14T17:48:56;62.93;;;36.37;;
56999;SDS011;42891;50.006;21.964;2023-02-14T17:52:57;55.70;;;32.25;;
56999;SDS011;42891;50.006;21.964;2023-02-14T17:56:57;47.83;;;28.35;;
56999;SDS011;42891;50.006;21.964;2023-02-14T18:01:02;51.30;;;30.30;;
56999;SDS011;42891;50.006;21.964;2023-02-14T18:05:03;49.60;;;30.58;;
56999;SDS011;42891;50.006;21.964;2023-02-14T18:09:06;50.60;;;30.17;;
56999;SDS011;42891;50.006;21.964;2023-02-14T18:13:06;47.38;;;27.67;;
56999;SDS011;42891;50.006;21.964;2023-02-14T18:17:07;47.85;;;28.17;;
56999;SDS011;42891;50.006;21.964;2023-02-14T18:21:08;55.80;;;30.00;;
56999;SDS011;42891;50.006;21.964;2023-02-14T18:25:10;51.22;;;29.40;;
56999;SDS011;42891;50.006;21.964;2023-02-14T18:29:11;57.27;;;31.97;;
56999;SDS011;42891;50.006;21.964;2023-02-14T18:33:12;52.25;;;30.83;;
56999;SDS011;42891;50.006;21.964;2023-02-14T18:37:12;53.40;;;29.90;;
56999;SDS011;42891;50.006;21.964;2023-02-14T18:41:14;55.75;;;32.17;;
56999;SDS011;42891;50.006;21.964;2023-02-14T18:45:17;51.13;;;28.95;;
56999;SDS011;42891;50.006;21.964;2023-02-14T18:49:17;56.45;;;31.83;;
56999;SDS011;42891;50.006;21.964;2023-02-14T18:53:18;47.73;;;27.00;;
56999;SDS011;42891;50.006;21.964;2023-02-14T18:57:18;49.97;;;27.47;;
56999;SDS011;42891;50.006;21.964;2023-02-14T19:01:20;49.78;;;29.30;;
56999;SDS011;42891;50.006;21.964;2023-02-14T19:05:22;42.35;;;26.58;;
56999;SDS011;42891;50.006;21.964;2023-02-14T19:09:22;47.07;;;25.97;;
56999;SDS011;42891;50.006;21.964;2023-02-14T19:13:26;70.88;;;37.00;;
56999;SDS011;42891;50.006;21.964;2023-02-14T19:17:28;87.55;;;42.30;;
56999;SDS011;42891;50.006;21.964;2023-02-14T19:21:29;47.67;;;27.40;;
56999;SDS011;42891;50.006;21.964;2023-02-14T19:25:32;90.70;;;41.45;;
56999;SDS011;42891;50.006;21.964;2023-02-14T19:29:33;72.22;;;34.55;;
56999;SDS011;42891;50.006;21.964;2023-02-14T19:33:37;104.50;;;46.35;;
56999;SDS011;42891;50.006;21.964;2023-02-14T19:37:41;141.70;;;56.95;;
56999;SDS011;42891;50.006;21.964;2023-02-14T19:41:41;63.90;;;33.17;;
56999;SDS011;42891;50.006;21.964;2023-02-14T19:45:42;102.65;;;48.70;;
56999;SDS011;42891;50.006;21.964;2023-02-14T19:49:42;46.20;;;29.23;;
56999;SDS011;42891;50.006;21.964;2023-02-14T19:53:42;53.10;;;32.42;;
56999;SDS011;42891;50.006;21.964;2023-02-14T19:57:43;38.15;;;22.88;;
56999;SDS011;42891;50.006;21.964;2023-02-14T20:01:53;41.40;;;24.13;;
56999;SDS011;42891;50.006;21.964;2023-02-14T20:05:54;46.33;;;25.35;;
56999;SDS011;42891;50.006;21.964;2023-02-14T20:09:55;37.17;;;22.63;;
56999;SDS011;42891;50.006;21.964;2023-02-14T20:13:56;39.50;;;23.17;;
56999;SDS011;42891;50.006;21.964;2023-02-14T20:17:57;37.67;;;23.10;;
56999;SDS011;42891;50.006;21.964;2023-02-14T20:21:57;44.35;;;27.80;;
56999;SDS011;42891;50.006;21.964;2023-02-14T20:25:58;82.00;;;37.80;;
56999;SDS011;42891;50.006;21.964;2023-02-14T20:29:59;74.07;;;35.72;;
56999;SDS011;42891;50.006;21.964;2023-02-14T20:33:59;46.10;;;25.70;;
56999;SDS011;42891;50.006;21.964;2023-02-14T20:38:00;51.70;;;26.48;;
56999;SDS011;42891;50.006;21.964;2023-02-14T20:42:00;45.67;;;23.90;;
56999;SDS011;42891;50.006;21.964;2023-02-14T20:46:01;80.13;;;38.13;;
56999;SDS011;42891;50.006;21.964;2023-02-14T20:50:03;77.38;;;39.63;;
56999;SDS011;42891;50.006;21.964;2023-02-14T20:54:04;49.00;;;28.52;;
56999;SDS011;42891;50.006;21.964;2023-02-14T20:58:04;49.47;;;30.90;;
56999;SDS011;42891;50.006;21.964;2023-02-14T21:02:04;43.80;;;24.80;;
56999;SDS011;42891;50.006;21.964;2023-02-14T21:06:06;53.53;;;28.00;;
56999;SDS011;42891;50.006;21.964;2023-02-14T21:10:10;91.53;;;41.53;;
56999;SDS011;42891;50.006;21.964;2023-02-14T21:14:10;151.00;;;79.50;;
56999;SDS011;42891;50.006;21.964;2023-02-14T21:18:11;95.68;;;49.53;;
56999;SDS011;42891;50.006;21.964;2023-02-14T21:22:11;58.33;;;30.97;;
56999;SDS011;42891;50.006;21.964;2023-02-14T21:26:11;47.97;;;28.13;;
56999;SDS011;42891;50.006;21.964;2023-02-14T21:30:12;68.63;;;43.53;;
56999;SDS011;42891;50.006;21.964;2023-02-14T21:34:13;54.03;;;33.63;;
56999;SDS011;42891;50.006;21.964;2023-02-14T21:38:15;50.53;;;31.42;;
56999;SDS011;42891;50.006;21.964;2023-02-14T21:42:15;36.90;;;22.00;;
56999;SDS011;42891;50.006;21.964;2023-02-14T21:46:18;37.13;;;21.63;;
56999;SDS011;42891;50.006;21.964;2023-02-14T21:50:20;37.65;;;22.05;;
56999;SDS011;42891;50.006;21.964;2023-02-14T21:54:29;45.58;;;29.17;;
56999;SDS011;42891;50.006;21.964;2023-02-14T21:58:29;50.17;;;29.40;;
56999;SDS011;42891;50.006;21.964;2023-02-14T22:02:30;41.80;;;24.05;;
56999;SDS011;42891;50.006;21.964;2023-02-14T22:06:30;49.78;;;27.08;;
56999;SDS011;42891;50.006;21.964;2023-02-14T22:10:30;51.58;;;28.30;;
56999;SDS011;42891;50.006;21.964;2023-02-14T22:14:30;58.15;;;28.67;;
56999;SDS011;42891;50.006;21.964;2023-02-14T22:18:31;40.45;;;24.60;;
56999;SDS011;42891;50.006;21.964;2023-02-14T22:22:32;44.25;;;26.83;;
56999;SDS011;42891;50.006;21.964;2023-02-14T22:26:34;45.75;;;25.85;;
56999;SDS011;42891;50.006;21.964;2023-02-14T22:30:39;46.03;;;26.90;;
56999;SDS011;42891;50.006;21.964;2023-02-14T22:34:39;47.27;;;27.97;;
56999;SDS011;42891;50.006;21.964;2023-02-14T22:38:40;51.72;;;28.73;;
56999;SDS011;42891;50.006;21.964;2023-02-14T22:42:41;56.85;;;29.88;;
56999;SDS011;42891;50.006;21.964;2023-02-14T22:46:41;71.68;;;34.75;;
56999;SDS011;42891;50.006;21.964;2023-02-14T22:50:41;58.85;;;30.25;;
56999;SDS011;42891;50.006;21.964;2023-02-14T22:54:42;54.28;;;28.98;;
56999;SDS011;42891;50.006;21.964;2023-02-14T22:58:43;46.75;;;26.13;;
56999;SDS011;42891;50.006;21.964;2023-02-14T23:02:44;47.72;;;25.40;;
56999;SDS011;42891;50.006;21.964;2023-02-14T23:06:44;45.03;;;26.08;;
56999;SDS011;42891;50.006;21.964;2023-02-14T23:10:44;44.15;;;24.13;;
56999;SDS011;42891;50.006;21.964;2023-02-14T23:14:45;41.70;;;24.87;;
56999;SDS011;42891;50.006;21.964;2023-02-14T23:19:03;53.70;;;28.50;;
56999;SDS011;42891;50.006;21.964;2023-02-14T23:23:22;46.75;;;26.05;;
56999;SDS011;42891;50.006;21.964;2023-02-14T23:27:36;45.90;;;25.13;;
56999;SDS011;42891;50.006;21.964;2023-02-14T23:31:38;38.97;;;24.00;;
56999;SDS011;42891;50.006;21.964;2023-02-14T23:35:38;41.80;;;23.70;;
56999;SDS011;42891;50.006;21.964;2023-02-14T23:39:39;40.80;;;22.70;;
56999;SDS011;42891;50.006;21.964;2023-02-14T23:43:40;37.53;;;21.35;;
56999;SDS011;42891;50.006;21.964;2023-02-14T23:47:40;36.55;;;20.92;;
56999;SDS011;42891;50.006;21.964;2023-02-14T23:51:40;35.30;;;22.50;;
56999;SDS011;42891;50.006;21.964;2023-02-14T23:55:42;40.22;;;24.30;;
56999;SDS011;42891;50.006;21.964;2023-02-14T23:59:42;40.88;;;23.90;;
